sensor_id;sensor_type;location;lat;lon;timestamp;P1;durP1;ratioP1;P2;durP2;ratioP2
84616;SDS011;74846;51.126;16.944;2024-02-15T00:01:36;16.10;;;8.90;;
84616;SDS011;74846;51.126;16.944;2024-02-15T00:04:04;16.00;;;8.40;;
84616;SDS011;74846;51.126;16.944;2024-02-15T00:06:33;14.40;;;7.80;;
84616;SDS011;74846;51.126;16.944;2024-02-15T00:09:02;16.00;;;7.70;;
84616;SDS011;74846;51.126;16.944;2024-02-15T00:11:30;14.50;;;7.80;;
84616;SDS011;74846;51.126;16.944;2024-02-15T00:14:00;13.90;;;7.50;;
84616;SDS011;74846;51.126;16.944;2024-02-15T00:16:28;13.90;;;6.90;;
84616;SDS011;74846;51.126;16.944;2024-02-15T00:18:56;11.80;;;7.50;;
84616;SDS011;74846;51.126;16.944;2024-02-15T00:21:24;12.60;;;7.20;;
84616;SDS011;74846;51.126;16.944;2024-02-15T00:23:52;12.90;;;7.60;;
84616;SDS011;74846;51.126;16.944;2024-02-15T00:26:23;13.20;;;7.90;;
84616;SDS011;74846;51.126;16.944;2024-02-15T00:28:51;11.90;;;7.80;;
84616;SDS011;74846;51.126;16.944;2024-02-15T00:31:20;12.70;;;7.60;;
84616;SDS011;74846;51.126;16.944;2024-02-15T00:33:48;12.40;;;7.90;;
84616;SDS011;74846;51.126;16.944;2024-02-15T00:36:17;14.00;;;6.90;;
84616;SDS011;74846;51.126;16.944;2024-02-15T00:38:45;12.60;;;7.60;;
84616;SDS011;74846;51.126;16.944;2024-02-15T00:41:13;12.80;;;7.40;;
84616;SDS011;74846;51.126;16.944;2024-02-15T00:43:41;11.80;;;7.60;;
84616;SDS011;74846;51.126;16.944;2024-02-15T00:46:09;14.80;;;8.20;;
84616;SDS011;74846;51.126;16.944;2024-02-15T00:48:37;12.30;;;7.30;;
84616;SDS011;74846;51.126;16.944;2024-02-15T00:51:07;11.70;;;7.80;;
84616;SDS011;74846;51.126;16.944;2024-02-15T00:53:35;13.00;;;6.90;;
84616;SDS011;74846;51.126;16.944;2024-02-15T00:56:03;15.20;;;7.50;;
84616;SDS011;74846;51.126;16.944;2024-02-15T00:58:32;13.20;;;7.70;;
84616;SDS011;74846;51.126;16.944;2024-02-15T01:01:00;16.20;;;7.70;;
84616;SDS011;74846;51.126;16.944;2024-02-15T01:03:28;11.60;;;7.60;;
84616;SDS011;74846;51.126;16.944;2024-02-15T01:05:56;12.10;;;7.20;;
84616;SDS011;74846;51.126;16.944;2024-02-15T01:08:26;13.30;;;8.00;;
84616;SDS011;74846;51.126;16.944;2024-02-15T01:14:03;12.50;;;8.00;;
84616;SDS011;74846;51.126;16.944;2024-02-15T01:16:31;15.60;;;7.80;;
84616;SDS011;74846;51.126;16.944;2024-02-15T01:18:59;14.90;;;8.80;;
84616;SDS011;74846;51.126;16.944;2024-02-15T01:21:28;15.50;;;8.40;;
84616;SDS011;74846;51.126;16.944;2024-02-15T01:23:56;15.30;;;8.70;;
84616;SDS011;74846;51.126;16.944;2024-02-15T01:26:24;17.30;;;8.40;;
84616;SDS011;74846;51.126;16.944;2024-02-15T01:28:52;14.00;;;8.10;;
84616;SDS011;74846;51.126;16.944;2024-02-15T01:31:21;15.80;;;8.10;;
84616;SDS011;74846;51.126;16.944;2024-02-15T01:33:49;11.80;;;7.40;;
84616;SDS011;74846;51.126;16.944;2024-02-15T01:36:17;13.90;;;8.50;;
84616;SDS011;74846;51.126;16.944;2024-02-15T01:38:46;14.20;;;8.30;;
84616;SDS011;74846;51.126;16.944;2024-02-15T01:41:14;14.00;;;7.60;;
84616;SDS011;74846;51.126;16.944;2024-02-15T01:43:45;16.90;;;9.30;;
84616;SDS011;74846;51.126;16.944;2024-02-15T01:46:13;17.20;;;9.10;;
84616;SDS011;74846;51.126;16.944;2024-02-15T01:48:42;15.10;;;8.80;;
84616;SDS011;74846;51.126;16.944;2024-02-15T01:51:11;16.50;;;8.90;;
84616;SDS011;74846;51.126;16.944;2024-02-15T01:53:42;12.70;;;7.50;;
84616;SDS011;74846;51.126;16.944;2024-02-15T01:56:11;13.80;;;8.40;;
84616;SDS011;74846;51.126;16.944;2024-02-15T01:58:41;13.10;;;8.30;;
84616;SDS011;74846;51.126;16.944;2024-02-15T02:01:10;17.30;;;9.00;;
84616;SDS011;74846;51.126;16.944;2024-02-15T02:03:39;14.50;;;8.40;;
84616;SDS011;74846;51.126;16.944;2024-02-15T02:06:07;17.40;;;9.50;;
84616;SDS011;74846;51.126;16.944;2024-02-15T02:08:36;18.00;;;9.00;;
84616;SDS011;74846;51.126;16.944;2024-02-15T02:11:04;15.60;;;9.40;;
84616;SDS011;74846;51.126;16.944;2024-02-15T02:13:32;16.60;;;9.40;;
84616;SDS011;74846;51.126;16.944;2024-02-15T02:16:00;14.10;;;8.20;;
84616;SDS011;74846;51.126;16.944;2024-02-15T02:18:28;13.10;;;8.30;;
84616;SDS011;74846;51.126;16.944;2024-02-15T02:20:57;15.20;;;9.20;;
84616;SDS011;74846;51.126;16.944;2024-02-15T02:23:26;13.80;;;8.30;;
84616;SDS011;74846;51.126;16.944;2024-02-15T02:25:54;14.70;;;8.40;;
84616;SDS011;74846;51.126;16.944;2024-02-15T02:28:23;15.50;;;9.30;;
84616;SDS011;74846;51.126;16.944;2024-02-15T02:30:51;15.30;;;9.40;;
84616;SDS011;74846;51.126;16.944;2024-02-15T02:33:19;14.90;;;8.70;;
84616;SDS011;74846;51.126;16.944;2024-02-15T02:35:50;14.40;;;7.90;;
84616;SDS011;74846;51.126;16.944;2024-02-15T02:38:19;13.10;;;8.30;;
84616;SDS011;74846;51.126;16.944;2024-02-15T02:40:47;14.00;;;8.40;;
84616;SDS011;74846;51.126;16.944;2024-02-15T02:43:15;15.50;;;8.60;;
84616;SDS011;74846;51.126;16.944;2024-02-15T02:45:43;14.00;;;8.30;;
84616;SDS011;74846;51.126;16.944;2024-02-15T02:48:13;15.40;;;9.20;;
84616;SDS011;74846;51.126;16.944;2024-02-15T02:50:41;16.30;;;9.80;;
84616;SDS011;74846;51.126;16.944;2024-02-15T02:53:09;17.70;;;9.60;;
84616;SDS011;74846;51.126;16.944;2024-02-15T02:55:38;15.30;;;9.30;;
84616;SDS011;74846;51.126;16.944;2024-02-15T02:58:08;14.50;;;8.70;;
84616;SDS011;74846;51.126;16.944;2024-02-15T03:00:36;12.90;;;7.80;;
84616;SDS011;74846;51.126;16.944;2024-02-15T03:03:05;16.40;;;9.40;;
84616;SDS011;74846;51.126;16.944;2024-02-15T03:05:33;15.70;;;9.30;;
84616;SDS011;74846;51.126;16.944;2024-02-15T03:08:01;16.50;;;9.80;;
84616;SDS011;74846;51.126;16.944;2024-02-15T03:10:29;15.10;;;8.90;;
84616;SDS011;74846;51.126;16.944;2024-02-15T03:12:57;14.00;;;8.50;;
84616;SDS011;74846;51.126;16.944;2024-02-15T03:15:25;14.60;;;8.20;;
84616;SDS011;74846;51.126;16.944;2024-02-15T03:17:54;13.30;;;8.30;;
84616;SDS011;74846;51.126;16.944;2024-02-15T03:20:22;13.70;;;8.70;;
84616;SDS011;74846;51.126;16.944;2024-02-15T03:22:59;14.20;;;8.50;;
84616;SDS011;74846;51.126;16.944;2024-02-15T03:25:29;15.40;;;8.80;;
84616;SDS011;74846;51.126;16.944;2024-02-15T03:27:58;13.50;;;8.40;;
84616;SDS011;74846;51.126;16.944;2024-02-15T03:30:31;13.10;;;7.80;;
84616;SDS011;74846;51.126;16.944;2024-02-15T03:33:01;12.80;;;9.00;;
84616;SDS011;74846;51.126;16.944;2024-02-15T03:35:34;14.70;;;7.90;;
84616;SDS011;74846;51.126;16.944;2024-02-15T03:38:02;13.30;;;8.60;;
84616;SDS011;74846;51.126;16.944;2024-02-15T03:40:31;13.30;;;8.10;;
84616;SDS011;74846;51.126;16.944;2024-02-15T03:42:59;12.40;;;7.90;;
84616;SDS011;74846;51.126;16.944;2024-02-15T03:45:27;14.30;;;7.80;;
84616;SDS011;74846;51.126;16.944;2024-02-15T03:47:55;13.70;;;7.80;;
84616;SDS011;74846;51.126;16.944;2024-02-15T03:50:24;15.70;;;8.70;;
84616;SDS011;74846;51.126;16.944;2024-02-15T03:52:52;15.00;;;8.00;;
84616;SDS011;74846;51.126;16.944;2024-02-15T03:55:20;14.00;;;8.20;;
84616;SDS011;74846;51.126;16.944;2024-02-15T03:57:50;15.40;;;9.60;;
84616;SDS011;74846;51.126;16.944;2024-02-15T04:00:18;13.00;;;7.60;;
84616;SDS011;74846;51.126;16.944;2024-02-15T04:02:49;16.50;;;8.20;;
84616;SDS011;74846;51.126;16.944;2024-02-15T04:05:18;12.50;;;7.30;;
84616;SDS011;74846;51.126;16.944;2024-02-15T04:07:47;12.70;;;7.10;;
84616;SDS011;74846;51.126;16.944;2024-02-15T04:10:15;13.50;;;7.80;;
84616;SDS011;74846;51.126;16.944;2024-02-15T04:12:46;11.20;;;7.70;;
84616;SDS011;74846;51.126;16.944;2024-02-15T04:15:14;12.90;;;7.70;;
84616;SDS011;74846;51.126;16.944;2024-02-15T04:17:45;12.90;;;8.60;;
84616;SDS011;74846;51.126;16.944;2024-02-15T04:20:14;14.00;;;7.70;;
84616;SDS011;74846;51.126;16.944;2024-02-15T04:22:43;14.40;;;7.70;;
84616;SDS011;74846;51.126;16.944;2024-02-15T04:25:12;14.40;;;7.50;;
84616;SDS011;74846;51.126;16.944;2024-02-15T04:27:45;12.20;;;7.10;;
84616;SDS011;74846;51.126;16.944;2024-02-15T04:30:15;13.00;;;7.70;;
84616;SDS011;74846;51.126;16.944;2024-02-15T04:32:44;11.70;;;7.80;;
84616;SDS011;74846;51.126;16.944;2024-02-15T04:35:12;15.70;;;8.30;;
84616;SDS011;74846;51.126;16.944;2024-02-15T04:37:42;15.10;;;8.30;;
84616;SDS011;74846;51.126;16.944;2024-02-15T04:40:10;14.50;;;7.20;;
84616;SDS011;74846;51.126;16.944;2024-02-15T04:42:41;12.60;;;8.00;;
84616;SDS011;74846;51.126;16.944;2024-02-15T04:45:12;12.30;;;7.00;;
84616;SDS011;74846;51.126;16.944;2024-02-15T04:47:43;14.90;;;7.70;;
84616;SDS011;74846;51.126;16.944;2024-02-15T04:50:14;12.90;;;7.60;;
84616;SDS011;74846;51.126;16.944;2024-02-15T04:52:46;12.90;;;8.10;;
84616;SDS011;74846;51.126;16.944;2024-02-15T04:55:16;14.00;;;8.40;;
84616;SDS011;74846;51.126;16.944;2024-02-15T04:57:45;14.00;;;7.80;;
84616;SDS011;74846;51.126;16.944;2024-02-15T05:00:17;15.10;;;8.00;;
84616;SDS011;74846;51.126;16.944;2024-02-15T05:02:50;12.60;;;7.10;;
84616;SDS011;74846;51.126;16.944;2024-02-15T05:05:18;14.80;;;7.90;;
84616;SDS011;74846;51.126;16.944;2024-02-15T05:07:47;13.40;;;7.20;;
84616;SDS011;74846;51.126;16.944;2024-02-15T05:10:17;16.60;;;7.90;;
84616;SDS011;74846;51.126;16.944;2024-02-15T05:12:45;15.60;;;8.50;;
84616;SDS011;74846;51.126;16.944;2024-02-15T05:15:17;12.60;;;7.10;;
84616;SDS011;74846;51.126;16.944;2024-02-15T05:17:46;14.10;;;7.60;;
84616;SDS011;74846;51.126;16.944;2024-02-15T05:20:16;12.70;;;7.00;;
84616;SDS011;74846;51.126;16.944;2024-02-15T05:22:44;11.20;;;7.40;;
84616;SDS011;74846;51.126;16.944;2024-02-15T05:25:18;13.00;;;7.40;;
84616;SDS011;74846;51.126;16.944;2024-02-15T05:27:53;10.90;;;7.60;;
84616;SDS011;74846;51.126;16.944;2024-02-15T05:30:27;12.70;;;7.40;;
84616;SDS011;74846;51.126;16.944;2024-02-15T05:32:55;12.20;;;7.50;;
84616;SDS011;74846;51.126;16.944;2024-02-15T05:35:26;14.10;;;7.30;;
84616;SDS011;74846;51.126;16.944;2024-02-15T05:37:56;12.70;;;7.90;;
84616;SDS011;74846;51.126;16.944;2024-02-15T05:40:24;15.70;;;8.40;;
84616;SDS011;74846;51.126;16.944;2024-02-15T05:42:55;11.50;;;7.70;;
84616;SDS011;74846;51.126;16.944;2024-02-15T05:47:53;13.20;;;7.60;;
84616;SDS011;74846;51.126;16.944;2024-02-15T05:50:22;17.60;;;8.50;;
84616;SDS011;74846;51.126;16.944;2024-02-15T05:52:52;16.10;;;8.30;;
84616;SDS011;74846;51.126;16.944;2024-02-15T05:55:23;14.90;;;8.60;;
84616;SDS011;74846;51.126;16.944;2024-02-15T05:57:54;17.60;;;8.80;;
84616;SDS011;74846;51.126;16.944;2024-02-15T06:00:22;13.50;;;8.70;;
84616;SDS011;74846;51.126;16.944;2024-02-15T06:02:51;17.90;;;9.60;;
84616;SDS011;74846;51.126;16.944;2024-02-15T06:05:20;19.20;;;9.70;;
84616;SDS011;74846;51.126;16.944;2024-02-15T06:07:48;22.10;;;10.70;;
84616;SDS011;74846;51.126;16.944;2024-02-15T06:10:17;19.30;;;10.00;;
84616;SDS011;74846;51.126;16.944;2024-02-15T06:12:45;15.50;;;9.80;;
84616;SDS011;74846;51.126;16.944;2024-02-15T06:15:14;15.70;;;9.40;;
84616;SDS011;74846;51.126;16.944;2024-02-15T06:17:46;11.20;;;8.20;;
84616;SDS011;74846;51.126;16.944;2024-02-15T06:20:15;11.20;;;7.60;;
84616;SDS011;74846;51.126;16.944;2024-02-15T06:22:47;12.10;;;7.30;;
84616;SDS011;74846;51.126;16.944;2024-02-15T06:25:15;11.10;;;6.90;;
84616;SDS011;74846;51.126;16.944;2024-02-15T06:27:52;12.20;;;7.90;;
84616;SDS011;74846;51.126;16.944;2024-02-15T06:30:26;14.30;;;7.40;;
84616;SDS011;74846;51.126;16.944;2024-02-15T06:33:13;12.10;;;7.60;;
84616;SDS011;74846;51.126;16.944;2024-02-15T06:36:05;12.10;;;8.00;;
84616;SDS011;74846;51.126;16.944;2024-02-15T06:38:52;12.00;;;7.40;;
84616;SDS011;74846;51.126;16.944;2024-02-15T06:41:39;10.40;;;7.30;;
84616;SDS011;74846;51.126;16.944;2024-02-15T06:44:08;12.80;;;8.10;;
84616;SDS011;74846;51.126;16.944;2024-02-15T06:46:37;13.90;;;8.00;;
84616;SDS011;74846;51.126;16.944;2024-02-15T06:49:05;14.50;;;8.60;;
84616;SDS011;74846;51.126;16.944;2024-02-15T06:51:33;15.40;;;8.70;;
84616;SDS011;74846;51.126;16.944;2024-02-15T06:54:02;12.60;;;7.30;;
84616;SDS011;74846;51.126;16.944;2024-02-15T06:56:30;12.90;;;7.80;;
84616;SDS011;74846;51.126;16.944;2024-02-15T06:59:05;12.80;;;7.50;;
84616;SDS011;74846;51.126;16.944;2024-02-15T07:01:35;13.80;;;7.10;;
84616;SDS011;74846;51.126;16.944;2024-02-15T07:04:03;9.60;;;7.20;;
84616;SDS011;74846;51.126;16.944;2024-02-15T07:06:31;15.90;;;7.80;;
84616;SDS011;74846;51.126;16.944;2024-02-15T07:08:59;11.10;;;7.50;;
84616;SDS011;74846;51.126;16.944;2024-02-15T07:11:28;9.40;;;6.90;;
84616;SDS011;74846;51.126;16.944;2024-02-15T07:13:56;13.00;;;8.00;;
84616;SDS011;74846;51.126;16.944;2024-02-15T07:16:24;14.00;;;7.40;;
84616;SDS011;74846;51.126;16.944;2024-02-15T07:18:53;10.60;;;7.10;;
84616;SDS011;74846;51.126;16.944;2024-02-15T07:21:21;12.30;;;6.80;;
84616;SDS011;74846;51.126;16.944;2024-02-15T07:23:55;10.40;;;6.80;;
84616;SDS011;74846;51.126;16.944;2024-02-15T07:26:24;11.70;;;7.00;;
84616;SDS011;74846;51.126;16.944;2024-02-15T07:28:53;10.70;;;6.90;;
84616;SDS011;74846;51.126;16.944;2024-02-15T07:31:22;13.00;;;8.10;;
84616;SDS011;74846;51.126;16.944;2024-02-15T07:33:50;11.10;;;6.40;;
84616;SDS011;74846;51.126;16.944;2024-02-15T07:36:22;11.50;;;7.00;;
84616;SDS011;74846;51.126;16.944;2024-02-15T07:38:52;11.60;;;6.40;;
84616;SDS011;74846;51.126;16.944;2024-02-15T07:41:21;11.60;;;6.60;;
84616;SDS011;74846;51.126;16.944;2024-02-15T07:43:50;10.70;;;6.00;;
84616;SDS011;74846;51.126;16.944;2024-02-15T07:46:19;9.60;;;6.30;;
84616;SDS011;74846;51.126;16.944;2024-02-15T07:48:47;13.60;;;7.00;;
84616;SDS011;74846;51.126;16.944;2024-02-15T07:51:16;10.20;;;6.30;;
84616;SDS011;74846;51.126;16.944;2024-02-15T07:53:48;14.00;;;6.20;;
84616;SDS011;74846;51.126;16.944;2024-02-15T07:56:17;11.10;;;6.40;;
84616;SDS011;74846;51.126;16.944;2024-02-15T07:58:47;11.50;;;6.30;;
84616;SDS011;74846;51.126;16.944;2024-02-15T08:01:20;13.10;;;6.60;;
84616;SDS011;74846;51.126;16.944;2024-02-15T08:03:49;13.30;;;7.00;;
84616;SDS011;74846;51.126;16.944;2024-02-15T08:06:17;11.90;;;6.70;;
84616;SDS011;74846;51.126;16.944;2024-02-15T08:08:46;10.10;;;6.60;;
84616;SDS011;74846;51.126;16.944;2024-02-15T08:11:15;11.70;;;7.00;;
84616;SDS011;74846;51.126;16.944;2024-02-15T08:13:44;13.10;;;6.80;;
84616;SDS011;74846;51.126;16.944;2024-02-15T08:16:18;9.80;;;6.40;;
84616;SDS011;74846;51.126;16.944;2024-02-15T08:18:50;9.80;;;6.30;;
84616;SDS011;74846;51.126;16.944;2024-02-15T08:23:57;11.90;;;6.10;;
84616;SDS011;74846;51.126;16.944;2024-02-15T08:26:26;10.80;;;6.90;;
84616;SDS011;74846;51.126;16.944;2024-02-15T08:28:54;13.60;;;7.00;;
84616;SDS011;74846;51.126;16.944;2024-02-15T08:31:23;12.10;;;7.40;;
84616;SDS011;74846;51.126;16.944;2024-02-15T08:33:51;12.30;;;6.60;;
84616;SDS011;74846;51.126;16.944;2024-02-15T08:36:21;11.00;;;6.60;;
84616;SDS011;74846;51.126;16.944;2024-02-15T08:38:49;10.80;;;6.40;;
84616;SDS011;74846;51.126;16.944;2024-02-15T08:41:18;12.40;;;6.70;;
84616;SDS011;74846;51.126;16.944;2024-02-15T08:43:48;11.40;;;6.70;;
84616;SDS011;74846;51.126;16.944;2024-02-15T08:46:16;11.20;;;6.50;;
84616;SDS011;74846;51.126;16.944;2024-02-15T08:48:44;9.80;;;6.60;;
84616;SDS011;74846;51.126;16.944;2024-02-15T08:51:15;11.50;;;6.80;;
84616;SDS011;74846;51.126;16.944;2024-02-15T08:53:44;10.30;;;6.70;;
84616;SDS011;74846;51.126;16.944;2024-02-15T08:56:13;12.20;;;7.40;;
84616;SDS011;74846;51.126;16.944;2024-02-15T08:58:41;11.80;;;6.30;;
84616;SDS011;74846;51.126;16.944;2024-02-15T09:01:10;12.10;;;6.90;;
84616;SDS011;74846;51.126;16.944;2024-02-15T09:03:41;9.50;;;6.20;;
84616;SDS011;74846;51.126;16.944;2024-02-15T09:06:09;10.20;;;6.20;;
84616;SDS011;74846;51.126;16.944;2024-02-15T09:08:38;12.30;;;6.00;;
84616;SDS011;74846;51.126;16.944;2024-02-15T09:11:06;9.00;;;5.20;;
84616;SDS011;74846;51.126;16.944;2024-02-15T09:13:39;8.60;;;6.20;;
84616;SDS011;74846;51.126;16.944;2024-02-15T09:16:07;9.70;;;6.00;;
84616;SDS011;74846;51.126;16.944;2024-02-15T09:18:35;9.70;;;6.10;;
84616;SDS011;74846;51.126;16.944;2024-02-15T09:21:03;10.40;;;6.10;;
84616;SDS011;74846;51.126;16.944;2024-02-15T09:23:32;9.70;;;5.90;;
84616;SDS011;74846;51.126;16.944;2024-02-15T09:26:01;10.60;;;6.30;;
84616;SDS011;74846;51.126;16.944;2024-02-15T09:28:29;11.50;;;5.30;;
84616;SDS011;74846;51.126;16.944;2024-02-15T09:30:59;11.20;;;5.70;;
84616;SDS011;74846;51.126;16.944;2024-02-15T09:33:27;10.20;;;5.80;;
84616;SDS011;74846;51.126;16.944;2024-02-15T09:35:55;9.00;;;6.10;;
84616;SDS011;74846;51.126;16.944;2024-02-15T09:38:23;10.80;;;5.50;;
84616;SDS011;74846;51.126;16.944;2024-02-15T09:40:53;10.80;;;6.30;;
84616;SDS011;74846;51.126;16.944;2024-02-15T09:43:23;8.80;;;6.10;;
84616;SDS011;74846;51.126;16.944;2024-02-15T09:45:56;11.60;;;5.90;;
84616;SDS011;74846;51.126;16.944;2024-02-15T09:48:24;9.40;;;6.10;;
84616;SDS011;74846;51.126;16.944;2024-02-15T09:50:53;9.30;;;5.90;;
84616;SDS011;74846;51.126;16.944;2024-02-15T09:53:23;11.20;;;5.90;;
84616;SDS011;74846;51.126;16.944;2024-02-15T09:55:53;11.20;;;6.60;;
84616;SDS011;74846;51.126;16.944;2024-02-15T09:58:22;10.10;;;5.30;;
84616;SDS011;74846;51.126;16.944;2024-02-15T10:00:53;11.50;;;5.40;;
84616;SDS011;74846;51.126;16.944;2024-02-15T10:03:21;9.80;;;5.40;;
84616;SDS011;74846;51.126;16.944;2024-02-15T10:05:52;12.70;;;6.20;;
84616;SDS011;74846;51.126;16.944;2024-02-15T10:08:20;9.60;;;5.80;;
84616;SDS011;74846;51.126;16.944;2024-02-15T10:11:06;9.40;;;5.90;;
84616;SDS011;74846;51.126;16.944;2024-02-15T10:13:37;8.70;;;5.40;;
84616;SDS011;74846;51.126;16.944;2024-02-15T10:16:14;10.20;;;5.50;;
84616;SDS011;74846;51.126;16.944;2024-02-15T10:18:43;12.20;;;6.10;;
84616;SDS011;74846;51.126;16.944;2024-02-15T10:21:23;9.10;;;5.10;;
84616;SDS011;74846;51.126;16.944;2024-02-15T10:24:02;9.50;;;5.50;;
84616;SDS011;74846;51.126;16.944;2024-02-15T10:26:33;9.70;;;5.00;;
84616;SDS011;74846;51.126;16.944;2024-02-15T10:29:06;8.30;;;5.50;;
84616;SDS011;74846;51.126;16.944;2024-02-15T10:31:38;9.10;;;5.20;;
84616;SDS011;74846;51.126;16.944;2024-02-15T10:34:09;8.30;;;4.70;;
84616;SDS011;74846;51.126;16.944;2024-02-15T10:36:42;7.20;;;4.60;;
84616;SDS011;74846;51.126;16.944;2024-02-15T10:39:13;9.40;;;5.30;;
84616;SDS011;74846;51.126;16.944;2024-02-15T10:41:51;10.00;;;4.80;;
84616;SDS011;74846;51.126;16.944;2024-02-15T10:44:23;10.00;;;5.50;;
84616;SDS011;74846;51.126;16.944;2024-02-15T10:46:53;10.00;;;5.00;;
84616;SDS011;74846;51.126;16.944;2024-02-15T10:49:24;10.90;;;5.30;;
84616;SDS011;74846;51.126;16.944;2024-02-15T10:54:47;7.70;;;5.00;;
84616;SDS011;74846;51.126;16.944;2024-02-15T10:57:21;11.30;;;5.10;;
84616;SDS011;74846;51.126;16.944;2024-02-15T10:59:57;7.80;;;4.80;;
84616;SDS011;74846;51.126;16.944;2024-02-15T11:02:30;10.40;;;5.00;;
84616;SDS011;74846;51.126;16.944;2024-02-15T11:05:03;7.60;;;5.50;;
84616;SDS011;74846;51.126;16.944;2024-02-15T11:07:38;8.70;;;4.60;;
84616;SDS011;74846;51.126;16.944;2024-02-15T11:10:07;7.40;;;4.60;;
84616;SDS011;74846;51.126;16.944;2024-02-15T11:12:38;8.30;;;4.50;;
84616;SDS011;74846;51.126;16.944;2024-02-15T11:15:09;7.60;;;4.60;;
84616;SDS011;74846;51.126;16.944;2024-02-15T11:20:08;8.80;;;5.10;;
84616;SDS011;74846;51.126;16.944;2024-02-15T11:22:37;8.70;;;5.00;;
84616;SDS011;74846;51.126;16.944;2024-02-15T11:25:10;7.90;;;5.20;;
84616;SDS011;74846;51.126;16.944;2024-02-15T11:27:42;7.60;;;4.90;;
84616;SDS011;74846;51.126;16.944;2024-02-15T11:30:10;7.40;;;4.50;;
84616;SDS011;74846;51.126;16.944;2024-02-15T11:35:20;8.70;;;4.60;;
84616;SDS011;74846;51.126;16.944;2024-02-15T11:37:54;10.30;;;4.20;;
84616;SDS011;74846;51.126;16.944;2024-02-15T11:43:10;7.60;;;4.30;;
84616;SDS011;74846;51.126;16.944;2024-02-15T11:46:19;8.20;;;4.60;;
84616;SDS011;74846;51.126;16.944;2024-02-15T11:48:47;8.10;;;5.00;;
84616;SDS011;74846;51.126;16.944;2024-02-15T11:51:28;7.40;;;4.70;;
84616;SDS011;74846;51.126;16.944;2024-02-15T11:54:07;8.20;;;4.40;;
84616;SDS011;74846;51.126;16.944;2024-02-15T11:59:41;7.60;;;3.80;;
84616;SDS011;74846;51.126;16.944;2024-02-15T12:02:42;6.70;;;3.90;;
84616;SDS011;74846;51.126;16.944;2024-02-15T12:05:29;6.00;;;3.80;;
84616;SDS011;74846;51.126;16.944;2024-02-15T12:08:16;6.70;;;4.10;;
84616;SDS011;74846;51.126;16.944;2024-02-15T12:11:02;7.80;;;4.40;;
84616;SDS011;74846;51.126;16.944;2024-02-15T12:13:51;5.70;;;3.70;;
84616;SDS011;74846;51.126;16.944;2024-02-15T12:16:38;5.70;;;3.10;;
84616;SDS011;74846;51.126;16.944;2024-02-15T12:19:25;6.40;;;3.40;;
84616;SDS011;74846;51.126;16.944;2024-02-15T12:21:53;5.20;;;2.90;;
84616;SDS011;74846;51.126;16.944;2024-02-15T12:24:22;5.50;;;3.20;;
84616;SDS011;74846;51.126;16.944;2024-02-15T12:27:00;5.20;;;3.10;;
84616;SDS011;74846;51.126;16.944;2024-02-15T12:29:33;5.60;;;3.80;;
84616;SDS011;74846;51.126;16.944;2024-02-15T12:32:03;5.70;;;3.60;;
84616;SDS011;74846;51.126;16.944;2024-02-15T12:34:31;6.30;;;3.70;;
84616;SDS011;74846;51.126;16.944;2024-02-15T12:37:05;6.30;;;3.80;;
84616;SDS011;74846;51.126;16.944;2024-02-15T12:39:37;7.30;;;3.80;;
84616;SDS011;74846;51.126;16.944;2024-02-15T12:42:06;6.70;;;3.30;;
84616;SDS011;74846;51.126;16.944;2024-02-15T12:44:35;7.20;;;3.70;;
84616;SDS011;74846;51.126;16.944;2024-02-15T12:47:04;6.70;;;3.50;;
84616;SDS011;74846;51.126;16.944;2024-02-15T12:49:33;7.00;;;3.60;;
84616;SDS011;74846;51.126;16.944;2024-02-15T12:55:12;7.10;;;3.50;;
84616;SDS011;74846;51.126;16.944;2024-02-15T12:57:53;6.60;;;3.50;;
84616;SDS011;74846;51.126;16.944;2024-02-15T13:00:24;6.40;;;2.90;;
84616;SDS011;74846;51.126;16.944;2024-02-15T13:02:57;4.80;;;3.00;;
84616;SDS011;74846;51.126;16.944;2024-02-15T13:05:26;4.50;;;2.80;;
84616;SDS011;74846;51.126;16.944;2024-02-15T13:07:55;4.90;;;3.10;;
84616;SDS011;74846;51.126;16.944;2024-02-15T13:10:23;4.40;;;2.90;;
84616;SDS011;74846;51.126;16.944;2024-02-15T13:12:52;4.70;;;2.70;;
84616;SDS011;74846;51.126;16.944;2024-02-15T13:15:21;4.20;;;2.80;;
84616;SDS011;74846;51.126;16.944;2024-02-15T13:17:54;5.20;;;3.10;;
84616;SDS011;74846;51.126;16.944;2024-02-15T13:20:23;4.20;;;2.70;;
84616;SDS011;74846;51.126;16.944;2024-02-15T13:23:01;5.10;;;3.10;;
84616;SDS011;74846;51.126;16.944;2024-02-15T13:25:37;4.60;;;3.00;;
84616;SDS011;74846;51.126;16.944;2024-02-15T13:28:09;5.70;;;3.10;;
84616;SDS011;74846;51.126;16.944;2024-02-15T13:30:41;4.90;;;2.70;;
84616;SDS011;74846;51.126;16.944;2024-02-15T13:33:12;4.50;;;2.90;;
84616;SDS011;74846;51.126;16.944;2024-02-15T13:35:44;5.10;;;3.00;;
84616;SDS011;74846;51.126;16.944;2024-02-15T13:38:13;6.30;;;3.20;;
84616;SDS011;74846;51.126;16.944;2024-02-15T13:40:52;5.90;;;3.20;;
84616;SDS011;74846;51.126;16.944;2024-02-15T13:45:51;6.20;;;3.40;;
84616;SDS011;74846;51.126;16.944;2024-02-15T13:48:20;6.20;;;3.90;;
84616;SDS011;74846;51.126;16.944;2024-02-15T13:50:52;4.90;;;3.30;;
84616;SDS011;74846;51.126;16.944;2024-02-15T13:53:21;4.90;;;3.10;;
84616;SDS011;74846;51.126;16.944;2024-02-15T13:55:52;5.90;;;3.80;;
84616;SDS011;74846;51.126;16.944;2024-02-15T13:58:20;6.00;;;3.50;;
84616;SDS011;74846;51.126;16.944;2024-02-15T14:00:49;5.50;;;3.60;;
84616;SDS011;74846;51.126;16.944;2024-02-15T14:03:17;7.80;;;4.00;;
84616;SDS011;74846;51.126;16.944;2024-02-15T14:05:46;7.40;;;4.30;;
84616;SDS011;74846;51.126;16.944;2024-02-15T14:08:15;6.30;;;4.00;;
84616;SDS011;74846;51.126;16.944;2024-02-15T14:10:44;8.30;;;4.50;;
84616;SDS011;74846;51.126;16.944;2024-02-15T14:13:12;6.60;;;4.40;;
84616;SDS011;74846;51.126;16.944;2024-02-15T14:15:42;6.70;;;3.60;;
84616;SDS011;74846;51.126;16.944;2024-02-15T14:18:11;7.50;;;4.10;;
84616;SDS011;74846;51.126;16.944;2024-02-15T14:20:47;7.50;;;4.20;;
84616;SDS011;74846;51.126;16.944;2024-02-15T14:23:16;6.30;;;4.10;;
84616;SDS011;74846;51.126;16.944;2024-02-15T14:25:44;11.40;;;4.40;;
84616;SDS011;74846;51.126;16.944;2024-02-15T14:28:13;7.50;;;4.60;;
84616;SDS011;74846;51.126;16.944;2024-02-15T14:30:44;6.90;;;4.00;;
84616;SDS011;74846;51.126;16.944;2024-02-15T14:33:30;8.10;;;4.80;;
84616;SDS011;74846;51.126;16.944;2024-02-15T14:36:02;8.30;;;4.40;;
84616;SDS011;74846;51.126;16.944;2024-02-15T14:38:32;8.00;;;4.20;;
84616;SDS011;74846;51.126;16.944;2024-02-15T14:41:02;8.30;;;4.40;;
84616;SDS011;74846;51.126;16.944;2024-02-15T14:43:35;8.30;;;4.30;;
84616;SDS011;74846;51.126;16.944;2024-02-15T14:46:03;7.90;;;4.40;;
84616;SDS011;74846;51.126;16.944;2024-02-15T14:48:36;9.90;;;5.00;;
84616;SDS011;74846;51.126;16.944;2024-02-15T14:51:08;6.40;;;4.20;;
84616;SDS011;74846;51.126;16.944;2024-02-15T14:53:37;8.70;;;5.10;;
84616;SDS011;74846;51.126;16.944;2024-02-15T14:56:05;7.30;;;4.20;;
84616;SDS011;74846;51.126;16.944;2024-02-15T14:58:34;7.70;;;4.30;;
84616;SDS011;74846;51.126;16.944;2024-02-15T15:01:02;9.30;;;4.40;;
84616;SDS011;74846;51.126;16.944;2024-02-15T15:03:37;7.90;;;4.90;;
84616;SDS011;74846;51.126;16.944;2024-02-15T15:06:07;7.40;;;4.30;;
84616;SDS011;74846;51.126;16.944;2024-02-15T15:08:55;7.90;;;4.40;;
84616;SDS011;74846;51.126;16.944;2024-02-15T15:11:43;9.40;;;5.10;;
84616;SDS011;74846;51.126;16.944;2024-02-15T15:14:30;7.70;;;4.80;;